Time;durP1;ratioP1;P1;durP2;ratioP2;P2;SDS_P1;SDS_P2;PMS_P1;PMS_P2;Temp;Humidity;BMP_temperature;BMP_pressure;BME280_temperature;BME280_humidity;BME280_pressure;Samples;Min_cycle;Max_cycle;Signal;HPM_P1;HPM_P2
2021/04/02 00:00:25;;;;;;;20.15;3.58;;;9.20;57.60;;;;;;5017526;28;20033;-63
2021/04/02 00:02:53;;;;;;;23.85;4.28;;;9.20;58.00;;;;;;5012795;28;20037;-62
2021/04/02 00:05:21;;;;;;;19.88;3.78;;;9.10;57.70;;;;;;5003970;28;20029;-61
2021/04/02 00:07:49;;;;;;;21.27;4.32;;;9.00;57.70;;;;;;5020963;28;20530;-63
2021/04/02 00:10:18;;;;;;;20.25;3.42;;;9.00;57.70;;;;;;5012472;28;20048;-62
2021/04/02 00:12:47;;;;;;;14.98;3.40;;;8.90;57.70;;;;;;5014330;28;20021;-62
2021/04/02 00:15:19;;;;;;;16.00;3.70;;;8.90;57.70;;;;;;5009400;28;20254;-63
2021/04/02 00:17:47;;;;;;;16.45;3.55;;;8.90;57.80;;;;;;5018273;28;20128;-63
2021/04/02 00:20:17;;;;;;;19.88;4.05;;;8.80;57.90;;;;;;5013056;28;20026;-63
2021/04/02 00:22:45;;;;;;;12.63;3.67;;;8.80;58.00;;;;;;5004988;28;20442;-62
2021/04/02 00:25:15;;;;;;;24.25;3.47;;;8.80;58.10;;;;;;5009028;28;20585;-62
2021/04/02 00:27:45;;;;;;;17.13;3.45;;;8.80;58.00;;;;;;5012094;28;20041;-62
2021/04/02 00:30:23;;;;;;;16.00;3.85;;;8.70;58.10;;;;;;5007814;28;20064;-62
2021/04/02 00:32:55;;;;;;;22.33;3.88;;;8.70;58.00;;;;;;5021117;28;20479;-63
2021/04/02 00:35:21;;;;;;;9.98;3.10;;;8.60;58.00;;;;;;5005547;28;20786;-64
2021/04/02 00:37:47;;;;;;;24.27;4.20;;;8.60;58.10;;;;;;5011261;28;20033;-64
2021/04/02 00:40:31;;;;;;;32.95;4.32;;;8.60;58.20;;;;;;5004980;28;20029;-62
2021/04/02 00:43:00;;;;;;;12.15;2.95;;;8.60;58.30;;;;;;5008798;28;20705;-64
2021/04/02 00:45:25;;;;;;;21.40;3.90;;;8.60;58.40;;;;;;5009060;28;20040;-65
2021/04/02 00:47:54;;;;;;;24.45;4.03;;;8.50;58.30;;;;;;5007002;28;20037;-64
2021/04/02 00:51:12;;;;;;;24.27;3.40;;;8.50;58.40;;;;;;5011995;28;20407;-64
2021/04/02 00:53:41;;;;;;;11.82;3.30;;;8.50;58.40;;;;;;4992011;28;20036;-64
2021/04/02 00:56:11;;;;;;;15.63;4.00;;;8.50;58.40;;;;;;5003965;28;20104;-64
2021/04/02 00:58:40;;;;;;;20.75;3.95;;;8.50;58.50;;;;;;5013140;28;20063;-64
2021/04/02 01:01:10;;;;;;;15.85;3.65;;;8.50;58.40;;;;;;5009210;28;20030;-64
2021/04/02 01:03:36;;;;;;;16.02;3.90;;;8.50;58.40;;;;;;5005797;28;20036;-64
2021/04/02 01:06:04;;;;;;;17.23;3.30;;;8.40;58.40;;;;;;5000216;28;20538;-65
2021/04/02 01:08:33;;;;;;;22.42;3.55;;;8.40;58.50;;;;;;4999363;28;20033;-65
2021/04/02 01:11:03;;;;;;;18.65;3.45;;;8.40;58.60;;;;;;5012110;28;20021;-64
2021/04/02 01:13:40;;;;;;;18.38;3.70;;;8.30;58.50;;;;;;5000953;28;20026;-63
2021/04/02 01:16:12;;;;;;;17.00;3.70;;;8.30;58.50;;;;;;5007280;28;20530;-64
2021/04/02 01:18:57;;;;;;;21.75;3.42;;;8.30;58.50;;;;;;5003219;28;20053;-63
2021/04/02 01:21:31;;;;;;;18.48;3.65;;;8.20;58.40;;;;;;5009157;28;20061;-64
2021/04/02 01:24:02;;;;;;;23.48;3.92;;;8.20;58.50;;;;;;5009442;28;20107;-64
2021/04/02 01:26:38;;;;;;;15.65;3.28;;;8.20;58.60;;;;;;5009811;28;20130;-64
2021/04/02 01:29:24;;;;;;;20.63;3.47;;;8.10;58.60;;;;;;5007972;28;20034;-65
2021/04/02 01:31:57;;;;;;;18.13;3.65;;;8.10;58.60;;;;;;5004961;28;20127;-62
2021/04/02 01:34:32;;;;;;;24.63;4.00;;;8.10;58.70;;;;;;5001570;28;20030;-64
2021/04/02 01:37:04;;;;;;;26.20;3.30;;;8.10;58.80;;;;;;5008368;28;20040;-65
2021/04/02 01:39:33;;;;;;;14.18;3.38;;;8.10;58.80;;;;;;5008941;28;20034;-64
2021/04/02 01:42:04;;;;;;;25.08;3.25;;;8.10;58.90;;;;;;5014098;28;20041;-64
2021/04/02 01:44:33;;;;;;;16.70;3.67;;;8.10;58.90;;;;;;5006553;28;20490;-65
2021/04/02 01:47:02;;;;;;;25.67;4.07;;;8.10;58.80;;;;;;5010769;28;20124;-64
2021/04/02 01:49:30;;;;;;;18.00;3.63;;;8.10;58.80;;;;;;5032704;28;20033;-64
2021/04/02 01:51:59;;;;;;;20.27;3.45;;;8.10;59.00;;;;;;5015594;28;20032;-64
2021/04/02 01:54:27;;;;;;;23.25;3.88;;;8.10;59.10;;;;;;5010652;28;20486;-63
2021/04/02 01:56:55;;;;;;;19.42;3.25;;;8.10;59.20;;;;;;5010920;28;20056;-64
2021/04/02 01:59:22;;;;;;;26.05;3.55;;;8.10;59.20;;;;;;5014198;28;20541;-65
2021/04/02 02:01:51;;;;;;;19.25;4.00;;;8.10;59.20;;;;;;5003466;28;20474;-64
2021/04/02 02:04:24;;;;;;;17.15;3.75;;;8.10;59.20;;;;;;5006455;28;20395;-64
2021/04/02 02:06:53;;;;;;;20.33;4.05;;;8.10;59.20;;;;;;5016182;28;20071;-63
2021/04/02 02:09:30;;;;;;;16.90;3.30;;;8.10;59.20;;;;;;5018191;28;20565;-64
2021/04/02 02:11:59;;;;;;;16.23;3.83;;;8.00;59.20;;;;;;5021419;28;20434;-64
2021/04/02 02:14:29;;;;;;;21.23;3.80;;;8.00;59.20;;;;;;5014080;28;20364;-65
2021/04/02 02:16:59;;;;;;;24.00;3.47;;;8.00;59.30;;;;;;5012692;28;20626;-64
2021/04/02 02:19:29;;;;;;;17.70;3.50;;;8.10;59.70;;;;;;5011418;28;20041;-65
2021/04/02 02:22:01;;;;;;;25.90;3.80;;;8.10;60.00;;;;;;5010755;28;20029;-65
2021/04/02 02:24:30;;;;;;;11.90;3.80;;;8.20;60.30;;;;;;4998077;28;20040;-63
2021/04/02 02:26:56;;;;;;;28.45;3.83;;;8.30;60.50;;;;;;5012184;28;20075;-64
2021/04/02 02:29:21;;;;;;;17.75;4.82;;;8.40;60.60;;;;;;5016250;28;20184;-63
2021/04/02 02:31:49;;;;;;;14.77;4.22;;;8.60;60.80;;;;;;5001270;28;20033;-65
2021/04/02 02:34:15;;;;;;;20.00;4.13;;;8.60;60.70;;;;;;5011781;28;20056;-63
2021/04/02 02:36:40;;;;;;;17.75;3.58;;;8.70;60.80;;;;;;5010848;28;20156;-63
2021/04/02 02:39:11;;;;;;;13.07;4.55;;;8.90;60.90;;;;;;5016315;28;20063;-63
2021/04/02 02:41:37;;;;;;;25.85;4.97;;;8.90;60.90;;;;;;5010901;28;20124;-63
2021/04/02 02:44:06;;;;;;;22.33;4.22;;;9.00;60.90;;;;;;5010907;28;20573;-64
2021/04/02 02:46:37;;;;;;;23.92;4.25;;;9.00;60.80;;;;;;5011737;28;20040;-63
2021/04/02 02:49:22;;;;;;;18.88;3.75;;;9.10;60.90;;;;;;5013099;28;20250;-64
2021/04/02 02:51:49;;;;;;;21.55;4.13;;;9.20;60.90;;;;;;5012846;28;20125;-64
2021/04/02 02:54:22;;;;;;;25.55;4.45;;;9.20;61.00;;;;;;5008043;28;20434;-64
2021/04/02 02:56:51;;;;;;;24.92;4.68;;;9.30;61.00;;;;;;5021727;28;20030;-64
2021/04/02 02:59:20;;;;;;;16.48;3.90;;;9.40;61.00;;;;;;5006137;28;20449;-64
2021/04/02 03:01:47;;;;;;;15.48;4.15;;;9.40;61.00;;;;;;5011279;28;20060;-65
2021/04/02 03:04:15;;;;;;;16.67;4.70;;;9.50;61.00;;;;;;5007342;28;20033;-64
2021/04/02 03:06:46;;;;;;;22.25;4.25;;;9.60;61.10;;;;;;5009368;28;20036;-63
2021/04/02 03:09:16;;;;;;;15.25;4.45;;;9.60;61.10;;;;;;5005210;28;20048;-65
2021/04/02 03:11:43;;;;;;;25.20;4.93;;;9.70;61.00;;;;;;5017522;28;20029;-64
2021/04/02 03:14:18;;;;;;;19.83;5.20;;;9.70;61.10;;;;;;5007295;28;23827;-64
2021/04/02 03:16:48;;;;;;;36.00;5.43;;;9.70;61.10;;;;;;5014605;28;20025;-64
2021/04/02 03:19:18;;;;;;;20.52;5.18;;;9.80;61.10;;;;;;5005424;28;20627;-64
2021/04/02 03:21:49;;;;;;;21.40;5.50;;;9.80;61.10;;;;;;5023671;28;20095;-64
2021/04/02 03:24:16;;;;;;;20.25;5.50;;;9.90;61.10;;;;;;5016873;28;20580;-64
2021/04/02 03:26:46;;;;;;;17.67;4.43;;;9.90;61.10;;;;;;5026613;28;20447;-64
2021/04/02 03:29:13;;;;;;;17.55;5.22;;;9.90;61.10;;;;;;5032017;28;20038;-63
2021/04/02 03:31:43;;;;;;;20.15;5.07;;;10.00;61.10;;;;;;5011479;28;20315;-63
2021/04/02 03:34:16;;;;;;;21.13;5.35;;;10.00;61.00;;;;;;5013783;28;20032;-64
2021/04/02 03:36:47;;;;;;;21.48;4.90;;;10.10;60.90;;;;;;5010043;28;20032;-64
2021/04/02 03:39:20;;;;;;;17.67;4.78;;;10.10;60.80;;;;;;5014809;28;20079;-63
2021/04/02 03:41:54;;;;;;;23.02;4.93;;;10.10;60.70;;;;;;5016540;28;20080;-63
2021/04/02 03:44:26;;;;;;;13.68;4.53;;;10.20;60.70;;;;;;5019825;28;20084;-64
2021/04/02 03:46:56;;;;;;;20.80;4.43;;;10.20;60.60;;;;;;5016361;28;20025;-65
2021/04/02 03:49:28;;;;;;;18.80;4.88;;;10.20;60.50;;;;;;5015807;28;20029;-64
2021/04/02 03:52:00;;;;;;;16.13;3.88;;;10.20;60.50;;;;;;5018017;28;20511;-64
2021/04/02 03:54:32;;;;;;;15.80;4.28;;;10.20;60.40;;;;;;5019034;28;20037;-64
2021/04/02 03:57:00;;;;;;;17.48;4.00;;;10.30;60.40;;;;;;5015088;28;20437;-65
2021/04/02 03:59:28;;;;;;;17.17;4.30;;;10.30;60.20;;;;;;5014629;28;20121;-64
2021/04/02 04:01:54;;;;;;;22.30;4.28;;;10.30;60.20;;;;;;5015613;28;20021;-63
2021/04/02 04:04:25;;;;;;;11.52;3.88;;;10.30;60.90;;;;;;5011471;28;20068;-64
2021/04/02 04:06:59;;;;;;;25.83;4.07;;;10.30;60.10;;;;;;5014158;28;20420;-64
2021/04/02 04:09:28;;;;;;;21.35;4.40;;;10.30;60.00;;;;;;5010691;28;20060;-65
2021/04/02 04:11:57;;;;;;;19.00;4.38;;;10.30;59.90;;;;;;5017531;28;20073;-65
2021/04/02 04:14:24;;;;;;;19.45;3.88;;;10.30;60.50;;;;;;5015393;28;20446;-63
2021/04/02 04:16:53;;;;;;;20.75;4.40;;;10.30;59.80;;;;;;5012039;28;20037;-63
2021/04/02 04:19:21;;;;;;;19.98;3.88;;;10.30;59.70;;;;;;5016433;28;20043;-65
2021/04/02 04:21:51;;;;;;;23.35;3.95;;;10.30;59.60;;;;;;5008445;28;22152;-64
2021/04/02 04:24:21;;;;;;;16.83;4.10;;;10.30;59.60;;;;;;5010736;28;20064;-64
2021/04/02 04:26:49;;;;;;;21.90;3.95;;;10.30;59.50;;;;;;5010593;28;20030;-64
2021/04/02 04:29:19;;;;;;;21.48;3.97;;;10.40;59.40;;;;;;5008578;28;20543;-65
2021/04/02 04:31:46;;;;;;;23.90;4.35;;;10.30;59.10;;;;;;5025579;28;20541;-63
2021/04/02 04:34:14;;;;;;;16.88;3.85;;;10.30;59.20;;;;;;5009734;28;20037;-64
2021/04/02 04:36:44;;;;;;;12.73;3.65;;;10.30;58.90;;;;;;5013694;28;20175;-65
2021/04/02 04:39:14;;;;;;;16.48;3.58;;;10.30;58.80;;;;;;5015487;28;20026;-64
2021/04/02 04:41:43;;;;;;;15.38;3.75;;;10.30;58.70;;;;;;5015356;28;20489;-65
2021/04/02 04:44:13;;;;;;;17.80;3.38;;;10.30;58.70;;;;;;5013865;28;20029;-64
2021/04/02 04:46:38;;;;;;;17.95;3.45;;;10.30;58.60;;;;;;5013884;28;20077;-63
2021/04/02 04:49:07;;;;;;;17.83;3.65;;;10.40;58.50;;;;;;5008201;28;20033;-62
2021/04/02 04:51:36;;;;;;;14.63;3.28;;;10.30;58.30;;;;;;5005704;28;20205;-63
2021/04/02 04:54:03;;;;;;;12.95;3.58;;;10.30;58.10;;;;;;5011897;28;20477;-63
2021/04/02 04:56:33;;;;;;;17.67;3.70;;;10.30;58.00;;;;;;5012505;28;20037;-63
2021/04/02 04:59:04;;;;;;;22.10;3.78;;;10.30;57.80;;;;;;5011143;28;20128;-63
2021/04/02 05:01:36;;;;;;;12.40;3.58;;;10.30;57.60;;;;;;5007860;28;20044;-63
2021/04/02 05:04:06;;;;;;;13.10;3.78;;;10.30;57.40;;;;;;5009952;28;20044;-65
2021/04/02 05:06:33;;;;;;;8.82;3.58;;;10.20;57.30;;;;;;5025807;23;20502;-62
2021/04/02 05:09:04;;;;;;;19.20;3.78;;;10.20;57.20;;;;;;4994482;28;20629;-62
2021/04/02 05:11:33;;;;;;;16.75;3.80;;;10.20;57.10;;;;;;4989376;28;20038;-62
2021/04/02 05:14:01;;;;;;;9.93;3.35;;;10.20;57.00;;;;;;4993982;28;20034;-61
2021/04/02 05:16:30;;;;;;;9.20;3.53;;;10.20;56.90;;;;;;5003884;28;20034;-62
2021/04/02 05:18:57;;;;;;;15.48;3.33;;;10.20;56.80;;;;;;4990279;28;20044;-62
2021/04/02 05:21:23;;;;;;;14.20;2.78;;;10.20;56.60;;;;;;4994928;28;20495;-61
2021/04/02 05:23:51;;;;;;;10.02;3.20;;;10.20;56.50;;;;;;4990581;28;20030;-61
2021/04/02 05:26:16;;;;;;;9.32;3.00;;;10.20;56.50;;;;;;4990030;28;20087;-61
2021/04/02 05:28:42;;;;;;;15.43;3.45;;;10.20;56.40;;;;;;4992696;28;20030;-61
2021/04/02 05:31:09;;;;;;;15.65;3.92;;;10.20;56.40;;;;;;4988503;28;20029;-61
2021/04/02 05:33:35;;;;;;;11.23;3.17;;;10.20;56.20;;;;;;4990704;28;20665;-61
2021/04/02 05:36:01;;;;;;;12.23;3.00;;;10.20;56.10;;;;;;4996101;28;20152;-61
2021/04/02 05:38:28;;;;;;;8.48;3.28;;;10.20;56.10;;;;;;4988982;28;20412;-61
2021/04/02 05:40:54;;;;;;;11.13;3.38;;;10.20;56.00;;;;;;4993990;28;20034;-60
2021/04/02 05:43:36;;;;;;;18.95;3.65;;;10.20;55.80;;;;;;4996981;28;20080;-61
2021/04/02 05:46:03;;;;;;;10.70;3.50;;;10.30;55.80;;;;;;4991630;28;20546;-61
2021/04/02 05:48:32;;;;;;;10.52;3.63;;;10.30;55.70;;;;;;4992003;28;20121;-61
2021/04/02 05:50:58;;;;;;;18.40;3.65;;;10.30;55.60;;;;;;4989451;28;20033;-62
2021/04/02 05:53:26;;;;;;;9.68;3.00;;;10.30;55.50;;;;;;4995576;28;20034;-62
2021/04/02 05:55:54;;;;;;;9.65;3.00;;;10.30;55.30;;;;;;4992283;28;20610;-62
2021/04/02 05:58:20;;;;;;;16.67;3.00;;;10.30;55.30;;;;;;4993239;28;20091;-62
2021/04/02 06:00:45;;;;;;;14.43;3.55;;;10.40;55.40;;;;;;4990707;28;20042;-61
2021/04/02 06:03:11;;;;;;;19.98;2.67;;;10.40;55.30;;;;;;4991286;28;20420;-62
2021/04/02 06:05:39;;;;;;;14.88;2.70;;;10.50;55.10;;;;;;4995542;28;20487;-62
2021/04/02 06:08:05;;;;;;;12.35;2.78;;;10.50;54.90;;;;;;4990515;28;20117;-62
2021/04/02 06:10:31;;;;;;;9.40;3.05;;;10.50;54.80;;;;;;4990912;28;20032;-62
2021/04/02 06:12:57;;;;;;;18.23;2.65;;;10.60;54.50;;;;;;4986140;28;20037;-62
2021/04/02 06:15:23;;;;;;;13.63;2.80;;;10.60;54.50;;;;;;5006851;28;20101;-62
2021/04/02 06:18:06;;;;;;;14.68;3.08;;;10.60;54.50;;;;;;4989929;28;20930;-63
2021/04/02 06:20:46;;;;;;;17.05;3.08;;;10.70;54.40;;;;;;4994533;28;20026;-62
2021/04/02 06:23:26;;;;;;;13.88;3.20;;;10.70;54.30;;;;;;4994863;28;20029;-62
2021/04/02 06:25:51;;;;;;;17.80;3.42;;;10.70;54.80;;;;;;4987015;28;20156;-62
2021/04/02 06:28:19;;;;;;;10.40;2.80;;;10.70;54.20;;;;;;4992184;28;20068;-62
2021/04/02 06:30:44;;;;;;;16.73;3.22;;;10.80;54.30;;;;;;4997259;28;20029;-62
2021/04/02 06:33:11;;;;;;;12.98;3.22;;;10.80;54.20;;;;;;4996691;28;20033;-62
2021/04/02 06:35:40;;;;;;;12.77;2.60;;;10.80;54.10;;;;;;4993118;28;22644;-62
2021/04/02 06:38:06;;;;;;;15.38;2.70;;;10.80;53.90;;;;;;4987770;28;20752;-62
2021/04/02 06:40:32;;;;;;;9.38;2.53;;;10.80;53.70;;;;;;4990588;28;20030;-62
2021/04/02 06:43:02;;;;;;;12.07;3.28;;;10.80;53.80;;;;;;4995740;28;20100;-62
2021/04/02 06:45:28;;;;;;;12.32;2.38;;;10.80;53.70;;;;;;4988928;28;20575;-62
2021/04/02 06:48:09;;;;;;;10.75;2.33;;;10.90;53.60;;;;;;4993563;28;20088;-62
2021/04/02 06:50:35;;;;;;;15.00;2.33;;;10.90;53.40;;;;;;5000352;28;20096;-62
2021/04/02 06:53:03;;;;;;;12.38;2.58;;;10.90;53.10;;;;;;4995718;28;20247;-62
2021/04/02 06:55:30;;;;;;;11.68;2.42;;;10.80;52.90;;;;;;5004438;28;20034;-62
2021/04/02 06:57:58;;;;;;;10.18;2.45;;;10.80;52.90;;;;;;4985330;28;20548;-63
2021/04/02 07:00:28;;;;;;;10.38;3.15;;;10.90;52.90;;;;;;4993212;28;20335;-62
2021/04/02 07:02:54;;;;;;;10.35;2.30;;;10.90;52.60;;;;;;4998488;28;20022;-62
2021/04/02 07:05:25;;;;;;;14.10;2.60;;;10.90;52.60;;;;;;4990725;28;20042;-62
2021/04/02 07:07:59;;;;;;;10.38;2.63;;;10.90;52.40;;;;;;4989868;28;20037;-62
2021/04/02 07:10:28;;;;;;;13.95;2.42;;;10.90;52.40;;;;;;4997940;28;20022;-62
2021/04/02 07:12:58;;;;;;;12.25;2.67;;;11.00;52.40;;;;;;4998800;28;20212;-62
2021/04/02 07:15:25;;;;;;;18.45;2.78;;;11.00;52.30;;;;;;4997971;28;20030;-62
2021/04/02 07:17:50;;;;;;;17.20;2.78;;;11.10;52.40;;;;;;5002290;28;20091;-62
2021/04/02 07:20:16;;;;;;;14.70;2.83;;;11.10;52.00;;;;;;4998188;28;20698;-62
2021/04/02 07:22:44;;;;;;;14.85;3.10;;;11.20;52.00;;;;;;4999096;28;20034;-62
2021/04/02 07:25:11;;;;;;;12.48;2.65;;;11.20;51.90;;;;;;4989583;28;20849;-62
2021/04/02 07:27:38;;;;;;;15.25;2.33;;;11.30;52.00;;;;;;4990514;28;20086;-62
2021/04/02 07:30:05;;;;;;;24.20;3.50;;;11.30;51.70;;;;;;5000931;28;20034;-62
2021/04/02 07:32:32;;;;;;;21.58;2.90;;;11.30;51.60;;;;;;5001390;28;20488;-62
2021/04/02 07:34:59;;;;;;;14.60;3.05;;;11.40;51.40;;;;;;5008090;23;20057;-69
2021/04/02 07:37:34;;;;;;;20.27;3.00;;;11.40;51.50;;;;;;4998462;28;20068;-70
2021/04/02 07:40:07;;;;;;;17.45;3.70;;;11.50;51.30;;;;;;5000039;28;20550;-68
2021/04/02 07:42:35;;;;;;;13.55;2.75;;;11.60;51.30;;;;;;5001796;28;20026;-70
2021/04/02 07:45:01;;;;;;;15.50;3.30;;;11.70;51.00;;;;;;4993213;28;20018;-70
2021/04/02 07:47:32;;;;;;;20.83;3.40;;;11.70;51.00;;;;;;4998669;28;20032;-71
2021/04/02 07:50:01;;;;;;;15.02;3.67;;;11.80;51.00;;;;;;5003186;23;20064;-62
2021/04/02 07:52:40;;;;;;;17.00;4.20;;;11.80;50.70;;;;;;4996646;28;20220;-62
2021/04/02 07:55:15;;;;;;;18.15;2.95;;;12.00;50.60;;;;;;4999364;28;20022;-63
2021/04/02 07:57:58;;;;;;;18.42;2.90;;;12.20;50.60;;;;;;4995778;28;20040;-63
2021/04/02 08:00:29;;;;;;;12.45;3.08;;;12.50;50.10;;;;;;4975226;28;20502;-62
2021/04/02 08:03:29;;;;;;;21.15;3.42;;;12.70;49.60;;;;;;4977936;28;20104;-61
2021/04/02 08:05:55;;;;;;;22.80;2.47;;;12.70;49.60;;;;;;4979292;28;20089;-62
2021/04/02 08:08:23;;;;;;;17.30;2.72;;;12.80;49.20;;;;;;4978295;28;20089;-62
2021/04/02 08:11:10;;;;;;;8.48;2.72;;;12.80;48.90;;;;;;4979966;28;20037;-62
2021/04/02 08:14:00;;;;;;;11.40;2.63;;;12.80;48.60;;;;;;4985439;28;20023;-62
2021/04/02 08:16:34;;;;;;;21.58;3.30;;;12.90;48.80;;;;;;4970964;28;20050;-62
2021/04/02 08:19:14;;;;;;;18.75;3.55;;;13.10;49.00;;;;;;4976153;28;20110;-64
2021/04/02 08:21:43;;;;;;;19.95;2.33;;;13.60;48.70;;;;;;4979554;28;20097;-62
2021/04/02 08:24:11;;;;;;;19.00;2.97;;;13.90;47.60;;;;;;4980342;28;20396;-62
2021/04/02 08:26:39;;;;;;;14.75;2.70;;;14.10;47.00;;;;;;4972233;28;20022;-62
2021/04/02 08:29:11;;;;;;;11.93;2.13;;;14.20;46.60;;;;;;4963695;28;20088;-62
2021/04/02 08:31:44;;;;;;;11.25;2.55;;;14.20;46.50;;;;;;4964647;28;20519;-62
2021/04/02 08:34:12;;;;;;;18.83;3.85;;;14.40;46.60;;;;;;4973296;28;20038;-63
2021/04/02 08:36:42;;;;;;;16.83;3.00;;;14.60;46.50;;;;;;4964345;28;20763;-62
2021/04/02 08:39:08;;;;;;;12.23;1.95;;;14.90;46.00;;;;;;4974074;28;20022;-63
2021/04/02 08:41:36;;;;;;;13.75;2.58;;;15.10;45.40;;;;;;4969096;28;20023;-63
2021/04/02 08:44:02;;;;;;;21.05;3.15;;;15.10;44.80;;;;;;4967393;28;20026;-62
2021/04/02 08:46:32;;;;;;;17.13;2.58;;;15.30;44.90;;;;;;4969684;28;20026;-62
2021/04/02 08:49:00;;;;;;;16.25;2.53;;;15.50;44.20;;;;;;4976440;28;20038;-63
2021/04/02 08:51:31;;;;;;;13.02;2.28;;;15.60;43.70;;;;;;4972734;28;20026;-62
2021/04/02 08:53:57;;;;;;;13.40;2.22;;;15.50;43.40;;;;;;4973327;28;20466;-62
2021/04/02 08:56:23;;;;;;;15.48;1.98;;;15.80;44.70;;;;;;4968912;28;20148;-63
2021/04/02 08:58:51;;;;;;;10.55;2.90;;;16.70;43.70;;;;;;4964230;28;20027;-63
2021/04/02 09:01:20;;;;;;;12.93;2.25;;;17.20;41.40;;;;;;4960637;28;20038;-63
2021/04/02 09:03:46;;;;;;;17.80;2.55;;;17.20;40.60;;;;;;4967233;28;20136;-62
2021/04/02 09:06:15;;;;;;;15.63;2.38;;;17.00;40.50;;;;;;4959724;28;20346;-62
2021/04/02 09:08:41;;;;;;;16.67;2.30;;;16.80;40.40;;;;;;4961133;28;20096;-62
2021/04/02 09:11:18;;;;;;;13.05;2.75;;;16.60;40.60;;;;;;4970810;28;20048;-62
2021/04/02 09:13:50;;;;;;;17.05;2.72;;;16.40;40.80;;;;;;4962656;28;20106;-62
2021/04/02 09:16:18;;;;;;;16.98;2.92;;;16.20;40.80;;;;;;4961147;28;20030;-62
2021/04/02 09:18:52;;;;;;;17.30;3.38;;;15.90;41.10;;;;;;4982015;28;20101;-62
2021/04/02 09:21:20;;;;;;;18.38;2.30;;;15.70;41.40;;;;;;4970659;28;20053;-62
2021/04/02 09:23:47;;;;;;;14.30;2.90;;;15.40;41.80;;;;;;4969864;28;20730;-63
2021/04/02 09:26:16;;;;;;;10.48;2.45;;;15.10;42.20;;;;;;4966070;28;20034;-62
2021/04/02 09:28:44;;;;;;;16.38;2.80;;;14.90;42.50;;;;;;4965504;28;20109;-62
2021/04/02 09:31:21;;;;;;;12.35;2.65;;;14.70;42.80;;;;;;4963415;28;20037;-63
2021/04/02 09:33:50;;;;;;;22.98;2.95;;;14.40;43.20;;;;;;4967606;28;20030;-62
2021/04/02 09:36:16;;;;;;;12.15;2.78;;;14.20;43.70;;;;;;4966370;28;20026;-62
2021/04/02 09:38:45;;;;;;;17.75;3.17;;;14.00;44.20;;;;;;4963710;28;20049;-62
2021/04/02 09:41:13;;;;;;;15.32;2.58;;;13.80;44.40;;;;;;4948190;28;20026;-63
2021/04/02 09:43:46;;;;;;;12.30;3.33;;;13.70;44.90;;;;;;4961281;28;20030;-62
2021/04/02 09:46:15;;;;;;;18.27;3.03;;;13.60;45.30;;;;;;4959569;28;20262;-63
2021/04/02 09:48:40;;;;;;;9.02;2.10;;;13.50;45.60;;;;;;4965621;28;20657;-62
2021/04/02 09:51:06;;;;;;;17.05;3.15;;;13.40;45.80;;;;;;4971170;28;20018;-62
2021/04/02 09:53:34;;;;;;;12.82;3.10;;;13.40;46.00;;;;;;4961777;28;20077;-62
2021/04/02 09:56:02;;;;;;;13.55;2.80;;;13.40;46.20;;;;;;4962277;28;20037;-62
2021/04/02 09:58:31;;;;;;;20.33;2.90;;;;;;;;;;4975352;28;20065;-62
2021/04/02 10:01:00;;;;;;;13.35;2.63;;;;;;;;;;4969568;28;20568;-63
2021/04/02 10:03:27;;;;;;;10.32;2.53;;;;;;;;;;4971876;28;20034;-63
2021/04/02 10:05:53;;;;;;;13.02;2.65;;;;;;;;;;4976935;28;20031;-62
2021/04/02 10:08:19;;;;;;;16.85;2.60;;;;;;;;;;4964297;28;20424;-62
2021/04/02 10:10:45;;;;;;;13.80;2.78;;;;;;;;;;4969465;28;20121;-62
2021/04/02 10:13:11;;;;;;;16.20;3.08;;;;;;;;;;4972311;28;20196;-63
2021/04/02 10:15:37;;;;;;;17.85;3.58;;;;;;;;;;4963149;28;20031;-62
2021/04/02 10:18:02;;;;;;;14.98;3.35;;;;;;;;;;4961648;28;20038;-63
2021/04/02 10:20:33;;;;;;;14.18;2.53;;;;;;;;;;4972980;28;20107;-63
2021/04/02 10:22:59;;;;;;;10.38;2.47;;;;;;;;;;4970226;28;20092;-62
2021/04/02 10:25:25;;;;;;;14.60;3.10;;;;;;;;;;4974483;28;20426;-62
2021/04/02 10:27:53;;;;;;;14.57;3.15;;;;;;;;;;4966336;28;20502;-63
2021/04/02 10:30:19;;;;;;;17.27;2.70;;;;;;;;;;4966821;28;20029;-62
2021/04/02 10:32:45;;;;;;;12.95;2.70;;;;;;;;;;4965585;28;20113;-62
2021/04/02 10:35:12;;;;;;;15.90;3.00;;;;;;;;;;4970187;28;20035;-62
2021/04/02 10:37:38;;;;;;;12.85;2.95;;;;;;;;;;4965227;28;20050;-62
2021/04/02 10:40:08;;;;;;;15.43;3.33;;;;;;;;;;4974573;28;20895;-62
2021/04/02 10:42:34;;;;;;;10.48;3.35;;;;;;;;;;4965756;28;20118;-62
2021/04/02 10:45:00;;;;;;;14.50;3.40;;;13.30;46.20;;;;;;4964873;28;20039;-63
2021/04/02 10:47:28;;;;;;;11.23;2.88;;;13.60;46.20;;;;;;4968725;28;20076;-61
2021/04/02 10:49:54;;;;;;;14.38;3.72;;;13.70;46.30;;;;;;4973125;28;20818;-62
2021/04/02 10:52:21;;;;;;;9.93;2.55;;;13.80;46.00;;;;;;4971368;28;20037;-63
2021/04/02 10:54:47;;;;;;;12.57;2.80;;;13.80;45.80;;;;;;4966192;28;20409;-62
2021/04/02 10:57:15;;;;;;;14.07;3.03;;;13.80;45.80;;;;;;4966216;28;20038;-63
2021/04/02 10:59:43;;;;;;;9.55;3.03;;;13.80;45.70;;;;;;4960022;28;20526;-62
2021/04/02 11:02:12;;;;;;;18.65;3.30;;;13.80;45.60;;;;;;4966255;28;20031;-62
2021/04/02 11:04:40;;;;;;;11.55;3.10;;;13.80;45.80;;;;;;4965462;28;21755;-63
2021/04/02 11:07:06;;;;;;;8.68;2.55;;;13.80;45.60;;;;;;4975989;28;20027;-62
2021/04/02 11:09:34;;;;;;;12.82;2.83;;;13.90;45.40;;;;;;4971344;28;20062;-62
2021/04/02 11:12:00;;;;;;;11.68;1.92;;;13.90;45.00;;;;;;4958717;28;20096;-62
2021/04/02 11:14:25;;;;;;;11.85;2.40;;;13.90;45.00;;;;;;4971178;28;20489;-62
2021/04/02 11:16:51;;;;;;;10.98;2.25;;;14.00;45.00;;;;;;4968835;28;20540;-62
2021/04/02 11:19:19;;;;;;;15.65;2.55;;;14.00;44.80;;;;;;4967562;28;20093;-62
2021/04/02 11:21:47;;;;;;;6.97;2.20;;;14.00;44.60;;;;;;4965445;28;20033;-62
2021/04/02 11:24:12;;;;;;;13.57;2.42;;;14.00;45.10;;;;;;4969344;28;20514;-62
2021/04/02 11:26:38;;;;;;;7.10;1.92;;;14.10;45.10;;;;;;4975524;28;20037;-63
2021/04/02 11:29:06;;;;;;;8.27;1.67;;;14.20;44.90;;;;;;4977553;28;20512;-62
2021/04/02 11:31:33;;;;;;;9.60;1.98;;;14.30;44.60;;;;;;4962319;28;20593;-62
2021/04/02 11:34:02;;;;;;;10.13;1.77;;;14.30;44.20;;;;;;4962191;28;20030;-63
2021/04/02 11:36:28;;;;;;;10.63;2.10;;;14.30;44.00;;;;;;4971828;28;20026;-62
2021/04/02 11:38:54;;;;;;;13.60;2.15;;;14.30;44.00;;;;;;4971850;28;20031;-62
2021/04/02 11:41:24;;;;;;;13.05;1.85;;;14.30;44.00;;;;;;4977318;28;20664;-62
2021/04/02 11:43:50;;;;;;;12.93;2.05;;;14.40;43.90;;;;;;4995939;28;20037;-62
2021/04/02 11:46:19;;;;;;;10.70;1.92;;;14.50;43.70;;;;;;4978701;28;20042;-62
2021/04/02 11:48:44;;;;;;;12.77;2.15;;;14.60;43.60;;;;;;4980381;28;20030;-62
2021/04/02 11:51:12;;;;;;;10.25;3.03;;;14.70;43.40;;;;;;4974569;28;20058;-63
2021/04/02 11:53:40;;;;;;;7.15;2.08;;;14.90;44.10;;;;;;4966263;28;20034;-62
2021/04/02 11:56:05;;;;;;;11.68;2.28;;;15.80;44.40;;;;;;4969808;28;20040;-62
2021/04/02 11:58:33;;;;;;;9.48;1.55;;;16.80;42.60;;;;;;4968409;28;20027;-63
2021/04/02 12:01:01;;;;;;;5.80;1.75;;;17.30;40.70;;;;;;4957938;28;20220;-63
2021/04/02 12:03:26;;;;;;;8.05;1.70;;;17.70;40.10;;;;;;4962913;28;20046;-63
2021/04/02 12:05:54;;;;;;;6.82;1.45;;;18.00;39.10;;;;;;4964083;28;20224;-62
2021/04/02 12:08:20;;;;;;;8.35;1.90;;;18.00;38.10;;;;;;4969835;28;20712;-62
2021/04/02 12:10:46;;;;;;;6.45;1.65;;;17.80;37.50;;;;;;4957840;28;20038;-62
2021/04/02 12:13:11;;;;;;;8.32;1.40;;;17.80;37.90;;;;;;4969802;28;20026;-63
2021/04/02 12:15:39;;;;;;;6.47;1.90;;;17.60;37.90;;;;;;4955455;28;20579;-62
2021/04/02 12:18:08;;;;;;;5.95;1.83;;;17.50;37.50;;;;;;4958540;28;20034;-63
2021/04/02 12:20:33;;;;;;;6.57;1.60;;;17.30;37.60;;;;;;4959340;28;20034;-63
2021/04/02 12:23:02;;;;;;;3.97;1.20;;;17.10;38.10;;;;;;4965465;28;20505;-62
2021/04/02 12:25:28;;;;;;;5.78;1.00;;;17.00;38.00;;;;;;4964935;28;20408;-62
2021/04/02 12:27:56;;;;;;;8.48;1.23;;;16.90;37.90;;;;;;4975419;28;20113;-63
2021/04/02 12:30:24;;;;;;;10.40;1.58;;;16.90;38.20;;;;;;4964655;28;20137;-62
2021/04/02 12:32:50;;;;;;;10.40;1.40;;;16.80;38.00;;;;;;4965120;28;20030;-62
2021/04/02 12:35:15;;;;;;;7.18;1.27;;;16.80;37.90;;;;;;4969104;28;20097;-63
2021/04/02 12:37:41;;;;;;;9.63;1.80;;;16.70;37.80;;;;;;4954725;28;20035;-64
2021/04/02 12:40:21;;;;;;;8.07;1.70;;;16.60;38.10;;;;;;4960836;28;20034;-63
2021/04/02 12:42:47;;;;;;;7.60;1.77;;;16.50;38.30;;;;;;4966540;28;20041;-62
2021/04/02 12:45:16;;;;;;;12.68;1.45;;;16.30;38.50;;;;;;4961029;28;20031;-63
2021/04/02 12:47:42;;;;;;;6.82;1.25;;;16.20;38.60;;;;;;4962645;28;20323;-63
2021/04/02 12:50:14;;;;;;;4.88;1.23;;;16.10;38.60;;;;;;4973798;28;20041;-63
2021/04/02 12:52:40;;;;;;;5.50;1.80;;;15.90;38.80;;;;;;4961605;28;20061;-62
2021/04/02 12:55:12;;;;;;;8.27;1.77;;;15.70;38.90;;;;;;4962247;28;20120;-63
2021/04/02 12:57:41;;;;;;;6.47;1.50;;;15.50;39.40;;;;;;4961946;28;20026;-63